sensor_id;sensor_type;location;lat;lon;timestamp;P1;durP1;ratioP1;P2;durP2;ratioP2
56629;SDS011;42502;40.732;-74.254;2022-10-30T00:01:37;3.30;;;1.23;;
56629;SDS011;42502;40.732;-74.254;2022-10-30T00:03:42;5.82;;;1.40;;
56629;SDS011;42502;40.732;-74.254;2022-10-30T00:05:44;2.33;;;1.10;;
56629;SDS011;42502;40.732;-74.254;2022-10-30T00:07:49;3.83;;;1.20;;
56629;SDS011;42502;40.732;-74.254;2022-10-30T00:09:50;3.88;;;1.20;;
56629;SDS011;42502;40.732;-74.254;2022-10-30T00:11:50;4.20;;;1.20;;
56629;SDS011;42502;40.732;-74.254;2022-10-30T00:13:51;6.43;;;1.10;;
56629;SDS011;42502;40.732;-74.254;2022-10-30T00:15:52;3.75;;;1.20;;
56629;SDS011;42502;40.732;-74.254;2022-10-30T00:17:53;5.97;;;1.30;;
56629;SDS011;42502;40.732;-74.254;2022-10-30T00:19:54;4.40;;;1.23;;
56629;SDS011;42502;40.732;-74.254;2022-10-30T00:21:55;3.22;;;1.20;;
56629;SDS011;42502;40.732;-74.254;2022-10-30T00:23:56;3.10;;;1.20;;
56629;SDS011;42502;40.732;-74.254;2022-10-30T00:26:00;3.05;;;1.23;;
56629;SDS011;42502;40.732;-74.254;2022-10-30T00:28:05;2.28;;;0.95;;
56629;SDS011;42502;40.732;-74.254;2022-10-30T00:30:06;2.45;;;1.10;;
56629;SDS011;42502;40.732;-74.254;2022-10-30T00:32:10;4.35;;;1.20;;
56629;SDS011;42502;40.732;-74.254;2022-10-30T00:34:12;2.80;;;1.10;;
56629;SDS011;42502;40.732;-74.254;2022-10-30T00:36:12;3.25;;;1.30;;
56629;SDS011;42502;40.732;-74.254;2022-10-30T00:38:13;2.25;;;1.10;;
56629;SDS011;42502;40.732;-74.254;2022-10-30T00:40:14;3.85;;;1.30;;
56629;SDS011;42502;40.732;-74.254;2022-10-30T00:42:19;5.32;;;1.50;;
56629;SDS011;42502;40.732;-74.254;2022-10-30T00:46:54;4.03;;;1.23;;
56629;SDS011;42502;40.732;-74.254;2022-10-30T00:49:13;4.75;;;1.40;;
56629;SDS011;42502;40.732;-74.254;2022-10-30T00:51:15;3.10;;;1.05;;
56629;SDS011;42502;40.732;-74.254;2022-10-30T00:53:20;3.88;;;1.58;;
56629;SDS011;42502;40.732;-74.254;2022-10-30T00:55:24;4.97;;;1.50;;
56629;SDS011;42502;40.732;-74.254;2022-10-30T00:57:30;3.08;;;1.05;;
56629;SDS011;42502;40.732;-74.254;2022-10-30T00:59:32;2.70;;;1.27;;
56629;SDS011;42502;40.732;-74.254;2022-10-30T01:01:39;4.30;;;1.30;;
56629;SDS011;42502;40.732;-74.254;2022-10-30T01:03:42;4.32;;;1.20;;
56629;SDS011;42502;40.732;-74.254;2022-10-30T01:05:44;5.20;;;1.70;;
56629;SDS011;42502;40.732;-74.254;2022-10-30T01:07:49;2.85;;;1.20;;
56629;SDS011;42502;40.732;-74.254;2022-10-30T01:09:52;5.75;;;1.38;;
56629;SDS011;42502;40.732;-74.254;2022-10-30T01:11:53;4.40;;;1.75;;
56629;SDS011;42502;40.732;-74.254;2022-10-30T01:13:59;6.43;;;1.67;;
56629;SDS011;42502;40.732;-74.254;2022-10-30T01:25:28;6.43;;;2.03;;
56629;SDS011;42502;40.732;-74.254;2022-10-30T01:32:30;8.15;;;1.83;;
56629;SDS011;42502;40.732;-74.254;2022-10-30T01:34:57;5.88;;;1.85;;
56629;SDS011;42502;40.732;-74.254;2022-10-30T01:37:02;7.20;;;1.85;;
56629;SDS011;42502;40.732;-74.254;2022-10-30T01:39:14;6.25;;;1.85;;
56629;SDS011;42502;40.732;-74.254;2022-10-30T01:41:19;6.10;;;2.30;;
56629;SDS011;42502;40.732;-74.254;2022-10-30T01:43:22;4.93;;;1.65;;
56629;SDS011;42502;40.732;-74.254;2022-10-30T01:46:07;8.18;;;2.00;;
56629;SDS011;42502;40.732;-74.254;2022-10-30T01:52:25;8.60;;;2.28;;
56629;SDS011;42502;40.732;-74.254;2022-10-30T01:57:15;9.98;;;2.58;;
56629;SDS011;42502;40.732;-74.254;2022-10-30T02:01:33;6.97;;;2.17;;
56629;SDS011;42502;40.732;-74.254;2022-10-30T02:03:36;6.85;;;2.20;;
56629;SDS011;42502;40.732;-74.254;2022-10-30T02:05:42;5.18;;;1.80;;
56629;SDS011;42502;40.732;-74.254;2022-10-30T02:07:46;9.13;;;2.38;;
56629;SDS011;42502;40.732;-74.254;2022-10-30T02:09:49;4.93;;;2.20;;
56629;SDS011;42502;40.732;-74.254;2022-10-30T02:11:54;4.78;;;1.90;;
56629;SDS011;42502;40.732;-74.254;2022-10-30T02:16:02;6.18;;;2.45;;
56629;SDS011;42502;40.732;-74.254;2022-10-30T02:18:03;5.70;;;2.05;;
56629;SDS011;42502;40.732;-74.254;2022-10-30T02:20:04;5.72;;;2.15;;
56629;SDS011;42502;40.732;-74.254;2022-10-30T02:22:06;5.65;;;2.08;;
56629;SDS011;42502;40.732;-74.254;2022-10-30T02:24:07;7.50;;;2.00;;
56629;SDS011;42502;40.732;-74.254;2022-10-30T02:26:10;4.25;;;1.88;;
56629;SDS011;42502;40.732;-74.254;2022-10-30T02:28:14;7.57;;;2.22;;
56629;SDS011;42502;40.732;-74.254;2022-10-30T02:30:14;5.60;;;1.80;;
56629;SDS011;42502;40.732;-74.254;2022-10-30T02:32:15;5.60;;;1.85;;
56629;SDS011;42502;40.732;-74.254;2022-10-30T02:34:16;7.50;;;2.38;;
56629;SDS011;42502;40.732;-74.254;2022-10-30T02:36:17;5.60;;;2.10;;
56629;SDS011;42502;40.732;-74.254;2022-10-30T02:38:18;7.10;;;2.20;;
56629;SDS011;42502;40.732;-74.254;2022-10-30T02:40:22;8.10;;;2.50;;
56629;SDS011;42502;40.732;-74.254;2022-10-30T02:42:23;6.88;;;2.08;;
56629;SDS011;42502;40.732;-74.254;2022-10-30T02:44:26;9.93;;;2.10;;
56629;SDS011;42502;40.732;-74.254;2022-10-30T02:46:30;9.13;;;2.25;;
56629;SDS011;42502;40.732;-74.254;2022-10-30T02:48:31;7.75;;;2.38;;
56629;SDS011;42502;40.732;-74.254;2022-10-30T02:50:32;10.32;;;1.92;;
56629;SDS011;42502;40.732;-74.254;2022-10-30T02:52:33;7.72;;;2.17;;
56629;SDS011;42502;40.732;-74.254;2022-10-30T02:54:34;5.85;;;2.05;;
56629;SDS011;42502;40.732;-74.254;2022-10-30T02:56:35;5.10;;;1.98;;
56629;SDS011;42502;40.732;-74.254;2022-10-30T02:58:36;11.15;;;2.03;;
56629;SDS011;42502;40.732;-74.254;2022-10-30T03:00:37;6.45;;;2.08;;
56629;SDS011;42502;40.732;-74.254;2022-10-30T03:02:37;6.47;;;2.28;;
56629;SDS011;42502;40.732;-74.254;2022-10-30T03:04:38;5.80;;;2.00;;
56629;SDS011;42502;40.732;-74.254;2022-10-30T03:06:39;7.72;;;2.20;;
56629;SDS011;42502;40.732;-74.254;2022-10-30T03:08:41;4.78;;;1.77;;
56629;SDS011;42502;40.732;-74.254;2022-10-30T03:10:42;6.75;;;1.90;;
56629;SDS011;42502;40.732;-74.254;2022-10-30T03:12:43;5.88;;;1.88;;
56629;SDS011;42502;40.732;-74.254;2022-10-30T03:14:47;6.95;;;1.75;;
56629;SDS011;42502;40.732;-74.254;2022-10-30T03:16:47;6.20;;;2.30;;
56629;SDS011;42502;40.732;-74.254;2022-10-30T03:18:52;5.28;;;1.92;;
56629;SDS011;42502;40.732;-74.254;2022-10-30T03:20:59;9.23;;;2.13;;
56629;SDS011;42502;40.732;-74.254;2022-10-30T03:23:01;8.45;;;2.08;;
56629;SDS011;42502;40.732;-74.254;2022-10-30T03:25:01;4.88;;;1.63;;
56629;SDS011;42502;40.732;-74.254;2022-10-30T03:27:03;7.47;;;2.15;;
56629;SDS011;42502;40.732;-74.254;2022-10-30T03:29:03;5.85;;;2.35;;
56629;SDS011;42502;40.732;-74.254;2022-10-30T03:31:06;7.80;;;1.98;;
56629;SDS011;42502;40.732;-74.254;2022-10-30T03:33:08;6.15;;;2.13;;
56629;SDS011;42502;40.732;-74.254;2022-10-30T03:35:09;7.10;;;2.17;;
56629;SDS011;42502;40.732;-74.254;2022-10-30T03:37:10;8.70;;;2.17;;
56629;SDS011;42502;40.732;-74.254;2022-10-30T03:39:17;6.35;;;1.83;;
56629;SDS011;42502;40.732;-74.254;2022-10-30T03:41:17;5.00;;;1.80;;
56629;SDS011;42502;40.732;-74.254;2022-10-30T03:43:18;5.63;;;1.98;;
56629;SDS011;42502;40.732;-74.254;2022-10-30T03:45:19;6.50;;;1.83;;
56629;SDS011;42502;40.732;-74.254;2022-10-30T03:47:20;7.97;;;1.90;;
56629;SDS011;42502;40.732;-74.254;2022-10-30T03:49:23;6.47;;;1.60;;
56629;SDS011;42502;40.732;-74.254;2022-10-30T03:51:24;5.25;;;1.50;;
56629;SDS011;42502;40.732;-74.254;2022-10-30T03:53:25;7.55;;;1.90;;
56629;SDS011;42502;40.732;-74.254;2022-10-30T03:55:32;7.90;;;1.60;;
56629;SDS011;42502;40.732;-74.254;2022-10-30T03:57:36;7.15;;;1.83;;
56629;SDS011;42502;40.732;-74.254;2022-10-30T03:59:37;3.92;;;1.38;;
56629;SDS011;42502;40.732;-74.254;2022-10-30T04:01:41;4.13;;;1.60;;
56629;SDS011;42502;40.732;-74.254;2022-10-30T04:03:42;6.25;;;1.52;;
56629;SDS011;42502;40.732;-74.254;2022-10-30T04:05:45;2.05;;;1.10;;
56629;SDS011;42502;40.732;-74.254;2022-10-30T04:07:56;3.25;;;1.50;;
56629;SDS011;42502;40.732;-74.254;2022-10-30T04:09:59;4.90;;;1.25;;
56629;SDS011;42502;40.732;-74.254;2022-10-30T04:12:00;3.67;;;1.63;;
56629;SDS011;42502;40.732;-74.254;2022-10-30T04:14:00;3.17;;;1.40;;
56629;SDS011;42502;40.732;-74.254;2022-10-30T04:16:01;3.40;;;1.45;;
56629;SDS011;42502;40.732;-74.254;2022-10-30T04:18:03;3.63;;;1.17;;
56629;SDS011;42502;40.732;-74.254;2022-10-30T04:20:04;4.60;;;1.63;;
56629;SDS011;42502;40.732;-74.254;2022-10-30T04:22:05;2.05;;;1.40;;
56629;SDS011;42502;40.732;-74.254;2022-10-30T04:24:06;4.65;;;1.30;;
56629;SDS011;42502;40.732;-74.254;2022-10-30T04:26:07;2.30;;;1.20;;
56629;SDS011;42502;40.732;-74.254;2022-10-30T04:28:11;5.55;;;1.40;;
56629;SDS011;42502;40.732;-74.254;2022-10-30T04:30:12;2.50;;;1.33;;
56629;SDS011;42502;40.732;-74.254;2022-10-30T04:32:13;2.78;;;1.10;;
56629;SDS011;42502;40.732;-74.254;2022-10-30T04:34:14;3.25;;;1.40;;
56629;SDS011;42502;40.732;-74.254;2022-10-30T04:36:15;2.95;;;1.30;;
56629;SDS011;42502;40.732;-74.254;2022-10-30T04:38:17;2.47;;;1.20;;
56629;SDS011;42502;40.732;-74.254;2022-10-30T04:40:21;3.00;;;1.20;;
56629;SDS011;42502;40.732;-74.254;2022-10-30T04:42:23;3.47;;;1.40;;
56629;SDS011;42502;40.732;-74.254;2022-10-30T04:44:24;4.85;;;1.30;;
56629;SDS011;42502;40.732;-74.254;2022-10-30T04:46:25;2.00;;;1.23;;
56629;SDS011;42502;40.732;-74.254;2022-10-30T04:48:26;4.97;;;1.30;;
56629;SDS011;42502;40.732;-74.254;2022-10-30T04:50:26;2.42;;;1.20;;
56629;SDS011;42502;40.732;-74.254;2022-10-30T04:52:30;2.70;;;1.20;;
56629;SDS011;42502;40.732;-74.254;2022-10-30T04:54:31;2.45;;;1.23;;
56629;SDS011;42502;40.732;-74.254;2022-10-30T04:56:32;2.30;;;1.20;;
56629;SDS011;42502;40.732;-74.254;2022-10-30T04:58:32;3.47;;;1.10;;
56629;SDS011;42502;40.732;-74.254;2022-10-30T05:00:36;2.15;;;1.30;;
56629;SDS011;42502;40.732;-74.254;2022-10-30T05:02:37;2.60;;;1.17;;
56629;SDS011;42502;40.732;-74.254;2022-10-30T05:04:38;2.90;;;1.30;;
56629;SDS011;42502;40.732;-74.254;2022-10-30T05:06:39;5.43;;;1.20;;
56629;SDS011;42502;40.732;-74.254;2022-10-30T05:08:42;1.75;;;1.23;;
56629;SDS011;42502;40.732;-74.254;2022-10-30T05:12:46;2.35;;;1.10;;
56629;SDS011;42502;40.732;-74.254;2022-10-30T05:14:47;1.67;;;1.08;;
56629;SDS011;42502;40.732;-74.254;2022-10-30T05:16:48;2.75;;;1.08;;
56629;SDS011;42502;40.732;-74.254;2022-10-30T05:18:49;2.50;;;1.10;;
56629;SDS011;42502;40.732;-74.254;2022-10-30T05:20:49;3.10;;;1.00;;
56629;SDS011;42502;40.732;-74.254;2022-10-30T05:22:54;1.88;;;1.15;;
56629;SDS011;42502;40.732;-74.254;2022-10-30T05:24:55;2.30;;;1.17;;
56629;SDS011;42502;40.732;-74.254;2022-10-30T05:26:56;2.60;;;1.20;;
56629;SDS011;42502;40.732;-74.254;2022-10-30T05:28:57;3.70;;;1.35;;
56629;SDS011;42502;40.732;-74.254;2022-10-30T05:30:58;4.22;;;1.20;;
56629;SDS011;42502;40.732;-74.254;2022-10-30T05:33:06;2.20;;;1.10;;
56629;SDS011;42502;40.732;-74.254;2022-10-30T05:35:16;1.85;;;1.13;;
56629;SDS011;42502;40.732;-74.254;2022-10-30T05:37:22;2.55;;;1.00;;
56629;SDS011;42502;40.732;-74.254;2022-10-30T05:39:23;1.73;;;1.23;;
56629;SDS011;42502;40.732;-74.254;2022-10-30T05:41:27;1.67;;;1.10;;
56629;SDS011;42502;40.732;-74.254;2022-10-30T05:43:28;2.75;;;1.30;;
56629;SDS011;42502;40.732;-74.254;2022-10-30T05:45:29;2.10;;;0.98;;
56629;SDS011;42502;40.732;-74.254;2022-10-30T05:47:30;2.72;;;1.40;;
56629;SDS011;42502;40.732;-74.254;2022-10-30T05:49:31;4.13;;;1.10;;
56629;SDS011;42502;40.732;-74.254;2022-10-30T05:51:32;1.50;;;1.10;;
56629;SDS011;42502;40.732;-74.254;2022-10-30T05:53:33;2.10;;;1.10;;
56629;SDS011;42502;40.732;-74.254;2022-10-30T05:55:37;1.60;;;1.23;;
56629;SDS011;42502;40.732;-74.254;2022-10-30T05:57:37;2.85;;;1.20;;
56629;SDS011;42502;40.732;-74.254;2022-10-30T05:59:38;2.08;;;1.33;;
56629;SDS011;42502;40.732;-74.254;2022-10-30T06:01:41;1.88;;;1.13;;
56629;SDS011;42502;40.732;-74.254;2022-10-30T06:03:42;2.17;;;1.00;;
56629;SDS011;42502;40.732;-74.254;2022-10-30T06:05:44;2.17;;;1.10;;
56629;SDS011;42502;40.732;-74.254;2022-10-30T06:07:45;1.58;;;1.00;;
56629;SDS011;42502;40.732;-74.254;2022-10-30T06:09:46;1.98;;;1.00;;
56629;SDS011;42502;40.732;-74.254;2022-10-30T06:11:47;1.88;;;1.17;;
56629;SDS011;42502;40.732;-74.254;2022-10-30T06:13:48;1.88;;;1.20;;
56629;SDS011;42502;40.732;-74.254;2022-10-30T06:15:57;2.13;;;1.20;;
56629;SDS011;42502;40.732;-74.254;2022-10-30T06:18:01;1.80;;;1.10;;
56629;SDS011;42502;40.732;-74.254;2022-10-30T06:20:01;2.47;;;1.00;;
56629;SDS011;42502;40.732;-74.254;2022-10-30T06:22:08;1.23;;;0.93;;
56629;SDS011;42502;40.732;-74.254;2022-10-30T06:24:09;2.25;;;1.20;;
56629;SDS011;42502;40.732;-74.254;2022-10-30T06:26:10;2.97;;;1.20;;
56629;SDS011;42502;40.732;-74.254;2022-10-30T06:28:11;2.78;;;1.15;;
56629;SDS011;42502;40.732;-74.254;2022-10-30T06:30:12;1.60;;;1.20;;
56629;SDS011;42502;40.732;-74.254;2022-10-30T06:32:16;1.58;;;1.00;;
56629;SDS011;42502;40.732;-74.254;2022-10-30T06:34:17;2.80;;;1.08;;
56629;SDS011;42502;40.732;-74.254;2022-10-30T06:36:25;6.00;;;1.05;;
56629;SDS011;42502;40.732;-74.254;2022-10-30T06:38:25;1.30;;;1.10;;
56629;SDS011;42502;40.732;-74.254;2022-10-30T06:40:27;2.30;;;1.17;;
56629;SDS011;42502;40.732;-74.254;2022-10-30T06:42:31;1.80;;;1.00;;
56629;SDS011;42502;40.732;-74.254;2022-10-30T06:44:32;1.70;;;0.90;;
56629;SDS011;42502;40.732;-74.254;2022-10-30T06:46:35;1.90;;;1.10;;
56629;SDS011;42502;40.732;-74.254;2022-10-30T06:48:39;1.85;;;1.30;;
56629;SDS011;42502;40.732;-74.254;2022-10-30T06:50:39;1.80;;;0.90;;
56629;SDS011;42502;40.732;-74.254;2022-10-30T06:52:40;2.22;;;1.33;;
56629;SDS011;42502;40.732;-74.254;2022-10-30T06:54:41;2.10;;;1.00;;
56629;SDS011;42502;40.732;-74.254;2022-10-30T06:56:42;1.05;;;0.95;;
56629;SDS011;42502;40.732;-74.254;2022-10-30T06:58:45;2.42;;;1.10;;
56629;SDS011;42502;40.732;-74.254;2022-10-30T07:00:46;1.30;;;1.00;;
56629;SDS011;42502;40.732;-74.254;2022-10-30T07:02:56;3.35;;;1.20;;
56629;SDS011;42502;40.732;-74.254;2022-10-30T07:04:58;1.48;;;1.00;;
56629;SDS011;42502;40.732;-74.254;2022-10-30T07:06:59;2.58;;;1.00;;
56629;SDS011;42502;40.732;-74.254;2022-10-30T07:09:00;1.58;;;1.08;;
56629;SDS011;42502;40.732;-74.254;2022-10-30T07:11:01;3.30;;;0.93;;
56629;SDS011;42502;40.732;-74.254;2022-10-30T07:13:04;1.17;;;0.90;;
56629;SDS011;42502;40.732;-74.254;2022-10-30T07:15:08;1.27;;;0.90;;
56629;SDS011;42502;40.732;-74.254;2022-10-30T07:17:09;2.28;;;1.00;;
56629;SDS011;42502;40.732;-74.254;2022-10-30T07:19:10;1.40;;;0.88;;
56629;SDS011;42502;40.732;-74.254;2022-10-30T07:21:11;1.17;;;1.00;;
56629;SDS011;42502;40.732;-74.254;2022-10-30T07:23:17;3.17;;;1.20;;
56629;SDS011;42502;40.732;-74.254;2022-10-30T07:25:18;2.13;;;0.95;;
56629;SDS011;42502;40.732;-74.254;2022-10-30T07:27:19;4.60;;;1.00;;
56629;SDS011;42502;40.732;-74.254;2022-10-30T07:29:20;1.50;;;1.15;;
56629;SDS011;42502;40.732;-74.254;2022-10-30T07:31:21;1.48;;;1.00;;
56629;SDS011;42502;40.732;-74.254;2022-10-30T07:33:25;2.85;;;1.10;;
56629;SDS011;42502;40.732;-74.254;2022-10-30T07:35:26;1.23;;;0.77;;
56629;SDS011;42502;40.732;-74.254;2022-10-30T07:37:30;1.98;;;0.90;;
56629;SDS011;42502;40.732;-74.254;2022-10-30T07:39:31;1.38;;;1.00;;
56629;SDS011;42502;40.732;-74.254;2022-10-30T07:41:32;1.50;;;0.90;;
56629;SDS011;42502;40.732;-74.254;2022-10-30T07:43:33;3.10;;;0.93;;
56629;SDS011;42502;40.732;-74.254;2022-10-30T07:45:34;2.45;;;0.93;;
56629;SDS011;42502;40.732;-74.254;2022-10-30T07:47:41;1.23;;;0.88;;
56629;SDS011;42502;40.732;-74.254;2022-10-30T07:49:42;1.25;;;0.85;;
56629;SDS011;42502;40.732;-74.254;2022-10-30T07:51:43;1.40;;;1.00;;
56629;SDS011;42502;40.732;-74.254;2022-10-30T07:53:44;1.00;;;0.90;;
56629;SDS011;42502;40.732;-74.254;2022-10-30T07:55:45;0.93;;;0.70;;
56629;SDS011;42502;40.732;-74.254;2022-10-30T07:57:45;1.83;;;0.90;;
56629;SDS011;42502;40.732;-74.254;2022-10-30T07:59:49;3.40;;;0.95;;
56629;SDS011;42502;40.732;-74.254;2022-10-30T08:01:50;1.10;;;0.80;;
56629;SDS011;42502;40.732;-74.254;2022-10-30T08:03:51;1.75;;;0.90;;
56629;SDS011;42502;40.732;-74.254;2022-10-30T08:05:52;2.10;;;1.00;;
56629;SDS011;42502;40.732;-74.254;2022-10-30T08:07:52;2.33;;;0.90;;
56629;SDS011;42502;40.732;-74.254;2022-10-30T08:10:03;1.98;;;0.98;;
56629;SDS011;42502;40.732;-74.254;2022-10-30T08:12:06;1.35;;;0.90;;
56629;SDS011;42502;40.732;-74.254;2022-10-30T08:14:07;1.88;;;0.85;;
56629;SDS011;42502;40.732;-74.254;2022-10-30T08:16:07;1.45;;;0.95;;
56629;SDS011;42502;40.732;-74.254;2022-10-30T08:18:08;1.08;;;0.80;;
56629;SDS011;42502;40.732;-74.254;2022-10-30T08:20:13;1.30;;;0.90;;
56629;SDS011;42502;40.732;-74.254;2022-10-30T08:22:15;1.73;;;0.82;;
56629;SDS011;42502;40.732;-74.254;2022-10-30T08:24:34;1.25;;;0.93;;
56629;SDS011;42502;40.732;-74.254;2022-10-30T08:26:35;1.55;;;0.80;;
56629;SDS011;42502;40.732;-74.254;2022-10-30T08:28:38;1.00;;;0.90;;
56629;SDS011;42502;40.732;-74.254;2022-10-30T08:30:42;0.80;;;0.80;;
56629;SDS011;42502;40.732;-74.254;2022-10-30T08:32:42;1.50;;;0.80;;
56629;SDS011;42502;40.732;-74.254;2022-10-30T08:34:46;1.35;;;0.90;;
56629;SDS011;42502;40.732;-74.254;2022-10-30T08:36:50;2.58;;;0.80;;
56629;SDS011;42502;40.732;-74.254;2022-10-30T08:38:51;1.25;;;0.70;;
56629;SDS011;42502;40.732;-74.254;2022-10-30T08:40:52;1.42;;;0.90;;
56629;SDS011;42502;40.732;-74.254;2022-10-30T08:42:53;0.85;;;0.80;;
56629;SDS011;42502;40.732;-74.254;2022-10-30T08:44:55;1.30;;;0.80;;
56629;SDS011;42502;40.732;-74.254;2022-10-30T08:46:56;2.08;;;0.93;;
56629;SDS011;42502;40.732;-74.254;2022-10-30T08:49:00;0.90;;;0.80;;
56629;SDS011;42502;40.732;-74.254;2022-10-30T08:51:01;1.10;;;0.88;;
56629;SDS011;42502;40.732;-74.254;2022-10-30T08:53:05;0.80;;;0.70;;
56629;SDS011;42502;40.732;-74.254;2022-10-30T08:55:07;1.80;;;0.82;;
56629;SDS011;42502;40.732;-74.254;2022-10-30T08:57:08;0.95;;;0.80;;
56629;SDS011;42502;40.732;-74.254;2022-10-30T08:59:12;1.02;;;0.70;;
56629;SDS011;42502;40.732;-74.254;2022-10-30T09:01:13;1.60;;;0.95;;
56629;SDS011;42502;40.732;-74.254;2022-10-30T09:03:13;1.58;;;0.77;;
56629;SDS011;42502;40.732;-74.254;2022-10-30T09:05:14;1.23;;;1.00;;
56629;SDS011;42502;40.732;-74.254;2022-10-30T09:07:15;1.23;;;0.70;;
56629;SDS011;42502;40.732;-74.254;2022-10-30T09:09:16;1.77;;;0.70;;
56629;SDS011;42502;40.732;-74.254;2022-10-30T09:11:17;1.23;;;0.70;;
56629;SDS011;42502;40.732;-74.254;2022-10-30T09:13:17;1.08;;;0.80;;
56629;SDS011;42502;40.732;-74.254;2022-10-30T09:15:18;1.23;;;0.90;;
56629;SDS011;42502;40.732;-74.254;2022-10-30T09:17:19;1.67;;;0.70;;
56629;SDS011;42502;40.732;-74.254;2022-10-30T09:19:20;1.73;;;0.80;;
56629;SDS011;42502;40.732;-74.254;2022-10-30T09:21:21;0.98;;;0.70;;
56629;SDS011;42502;40.732;-74.254;2022-10-30T09:23:21;1.27;;;0.88;;
56629;SDS011;42502;40.732;-74.254;2022-10-30T09:25:22;0.70;;;0.60;;
56629;SDS011;42502;40.732;-74.254;2022-10-30T09:27:23;1.08;;;0.80;;
56629;SDS011;42502;40.732;-74.254;2022-10-30T09:29:24;1.85;;;0.75;;
56629;SDS011;42502;40.732;-74.254;2022-10-30T09:31:25;1.35;;;0.80;;
56629;SDS011;42502;40.732;-74.254;2022-10-30T09:33:25;0.88;;;0.70;;
56629;SDS011;42502;40.732;-74.254;2022-10-30T09:35:29;0.90;;;0.70;;
56629;SDS011;42502;40.732;-74.254;2022-10-30T09:37:37;0.80;;;0.70;;
56629;SDS011;42502;40.732;-74.254;2022-10-30T09:39:39;2.55;;;0.80;;
56629;SDS011;42502;40.732;-74.254;2022-10-30T09:46:34;5.82;;;0.80;;
56629;SDS011;42502;40.732;-74.254;2022-10-30T09:49:30;1.02;;;0.65;;
56629;SDS011;42502;40.732;-74.254;2022-10-30T09:53:38;0.93;;;0.70;;
56629;SDS011;42502;40.732;-74.254;2022-10-30T09:55:58;0.80;;;0.68;;
56629;SDS011;42502;40.732;-74.254;2022-10-30T10:00:17;1.17;;;0.70;;
56629;SDS011;42502;40.732;-74.254;2022-10-30T10:05:06;1.10;;;0.70;;
56629;SDS011;42502;40.732;-74.254;2022-10-30T10:07:54;0.85;;;0.70;;
56629;SDS011;42502;40.732;-74.254;2022-10-30T10:09:50;0.90;;;0.70;;
56629;SDS011;42502;40.732;-74.254;2022-10-30T10:11:57;1.00;;;0.65;;
56629;SDS011;42502;40.732;-74.254;2022-10-30T10:14:06;0.80;;;0.70;;
56629;SDS011;42502;40.732;-74.254;2022-10-30T10:16:15;0.85;;;0.63;;
56629;SDS011;42502;40.732;-74.254;2022-10-30T10:18:29;1.10;;;0.80;;
56629;SDS011;42502;40.732;-74.254;2022-10-30T10:20:36;1.27;;;0.70;;
56629;SDS011;42502;40.732;-74.254;2022-10-30T10:22:43;1.08;;;0.80;;
56629;SDS011;42502;40.732;-74.254;2022-10-30T10:24:46;1.35;;;0.57;;
56629;SDS011;42502;40.732;-74.254;2022-10-30T10:26:48;1.55;;;0.70;;
56629;SDS011;42502;40.732;-74.254;2022-10-30T10:28:59;0.80;;;0.60;;
56629;SDS011;42502;40.732;-74.254;2022-10-30T10:33:50;1.55;;;0.60;;
56629;SDS011;42502;40.732;-74.254;2022-10-30T10:35:56;0.50;;;0.50;;
56629;SDS011;42502;40.732;-74.254;2022-10-30T10:38:33;1.27;;;0.60;;
56629;SDS011;42502;40.732;-74.254;2022-10-30T10:46:13;0.80;;;0.60;;
56629;SDS011;42502;40.732;-74.254;2022-10-30T10:48:41;0.65;;;0.60;;
56629;SDS011;42502;40.732;-74.254;2022-10-30T10:50:51;1.55;;;0.60;;
56629;SDS011;42502;40.732;-74.254;2022-10-30T10:53:41;1.30;;;0.50;;
56629;SDS011;42502;40.732;-74.254;2022-10-30T10:55:28;1.67;;;0.90;;
56629;SDS011;42502;40.732;-74.254;2022-10-30T10:57:36;0.77;;;0.60;;
56629;SDS011;42502;40.732;-74.254;2022-10-30T10:59:46;1.25;;;0.70;;
56629;SDS011;42502;40.732;-74.254;2022-10-30T11:01:57;0.82;;;0.70;;
56629;SDS011;42502;40.732;-74.254;2022-10-30T11:04:17;0.68;;;0.60;;
56629;SDS011;42502;40.732;-74.254;2022-10-30T11:06:37;0.65;;;0.50;;
56629;SDS011;42502;40.732;-74.254;2022-10-30T11:08:43;0.70;;;0.50;;
56629;SDS011;42502;40.732;-74.254;2022-10-30T11:10:45;2.67;;;0.70;;
56629;SDS011;42502;40.732;-74.254;2022-10-30T11:12:48;3.45;;;0.60;;
56629;SDS011;42502;40.732;-74.254;2022-10-30T11:14:49;1.00;;;0.52;;
56629;SDS011;42502;40.732;-74.254;2022-10-30T11:19:07;1.25;;;0.60;;
56629;SDS011;42502;40.732;-74.254;2022-10-30T11:21:09;2.08;;;0.52;;
56629;SDS011;42502;40.732;-74.254;2022-10-30T11:25:44;1.80;;;0.75;;
56629;SDS011;42502;40.732;-74.254;2022-10-30T11:27:46;2.92;;;0.47;;
56629;SDS011;42502;40.732;-74.254;2022-10-30T11:30:02;1.25;;;0.60;;
56629;SDS011;42502;40.732;-74.254;2022-10-30T11:32:04;1.90;;;0.50;;
56629;SDS011;42502;40.732;-74.254;2022-10-30T11:36:21;2.15;;;0.65;;
56629;SDS011;42502;40.732;-74.254;2022-10-30T11:38:25;0.90;;;0.50;;
56629;SDS011;42502;40.732;-74.254;2022-10-30T11:40:26;1.90;;;0.60;;
56629;SDS011;42502;40.732;-74.254;2022-10-30T11:42:27;3.10;;;0.70;;
56629;SDS011;42502;40.732;-74.254;2022-10-30T11:44:41;2.72;;;0.63;;
56629;SDS011;42502;40.732;-74.254;2022-10-30T11:46:42;2.08;;;0.60;;
56629;SDS011;42502;40.732;-74.254;2022-10-30T11:48:43;1.67;;;0.50;;
56629;SDS011;42502;40.732;-74.254;2022-10-30T11:50:46;3.42;;;0.60;;
56629;SDS011;42502;40.732;-74.254;2022-10-30T11:53:10;1.73;;;0.60;;
56629;SDS011;42502;40.732;-74.254;2022-10-30T11:57:49;2.63;;;0.50;;
56629;SDS011;42502;40.732;-74.254;2022-10-30T11:59:57;1.13;;;0.70;;
56629;SDS011;42502;40.732;-74.254;2022-10-30T12:02:03;1.65;;;0.57;;
56629;SDS011;42502;40.732;-74.254;2022-10-30T12:04:24;3.97;;;0.55;;
56629;SDS011;42502;40.732;-74.254;2022-10-30T12:06:27;2.78;;;0.57;;
56629;SDS011;42502;40.732;-74.254;2022-10-30T12:08:29;2.65;;;0.70;;
56629;SDS011;42502;40.732;-74.254;2022-10-30T12:10:29;3.63;;;0.50;;
56629;SDS011;42502;40.732;-74.254;2022-10-30T12:12:31;4.07;;;0.60;;
56629;SDS011;42502;40.732;-74.254;2022-10-30T12:14:37;2.83;;;0.70;;
56629;SDS011;42502;40.732;-74.254;2022-10-30T12:16:42;4.05;;;0.75;;
56629;SDS011;42502;40.732;-74.254;2022-10-30T12:18:52;2.47;;;0.50;;
56629;SDS011;42502;40.732;-74.254;2022-10-30T12:21:04;7.20;;;0.60;;
56629;SDS011;42502;40.732;-74.254;2022-10-30T12:23:08;2.80;;;0.65;;
56629;SDS011;42502;40.732;-74.254;2022-10-30T12:25:23;3.33;;;0.60;;
56629;SDS011;42502;40.732;-74.254;2022-10-30T12:27:33;7.57;;;0.70;;
56629;SDS011;42502;40.732;-74.254;2022-10-30T12:31:59;1.63;;;0.60;;
56629;SDS011;42502;40.732;-74.254;2022-10-30T12:34:14;14.13;;;0.85;;
56629;SDS011;42502;40.732;-74.254;2022-10-30T12:36:19;5.13;;;0.95;;
56629;SDS011;42502;40.732;-74.254;2022-10-30T12:41:30;3.75;;;0.70;;
56629;SDS011;42502;40.732;-74.254;2022-10-30T12:43:15;1.30;;;0.47;;
56629;SDS011;42502;40.732;-74.254;2022-10-30T12:45:36;4.10;;;0.63;;
56629;SDS011;42502;40.732;-74.254;2022-10-30T12:47:50;3.78;;;0.88;;
56629;SDS011;42502;40.732;-74.254;2022-10-30T12:50:02;3.63;;;0.55;;
56629;SDS011;42502;40.732;-74.254;2022-10-30T12:52:30;1.85;;;0.60;;
56629;SDS011;42502;40.732;-74.254;2022-10-30T12:59:39;2.15;;;0.45;;
56629;SDS011;42502;40.732;-74.254;2022-10-30T13:01:53;5.65;;;0.50;;
56629;SDS011;42502;40.732;-74.254;2022-10-30T13:06:43;3.50;;;0.50;;
56629;SDS011;42502;40.732;-74.254;2022-10-30T13:08:49;1.25;;;0.47;;
56629;SDS011;42502;40.732;-74.254;2022-10-30T13:13:22;1.63;;;0.40;;
56629;SDS011;42502;40.732;-74.254;2022-10-30T13:15:41;3.38;;;0.80;;
56629;SDS011;42502;40.732;-74.254;2022-10-30T13:17:57;2.00;;;0.57;;
56629;SDS011;42502;40.732;-74.254;2022-10-30T13:19:58;3.33;;;0.52;;
56629;SDS011;42502;40.732;-74.254;2022-10-30T13:22:01;3.47;;;0.50;;